createdAt,value
2022-12-11T00:01:23.475Z,0.80
2022-12-11T00:04:09.531Z,0.80
2022-12-11T00:06:55.470Z,0.70
2022-12-11T00:09:41.465Z,0.70
2022-12-11T00:12:27.777Z,0.80
2022-12-11T00:15:14.040Z,0.70
2022-12-11T00:17:59.987Z,0.60
2022-12-11T00:20:46.403Z,0.50
2022-12-11T00:23:32.415Z,0.50
2022-12-11T00:26:18.556Z,0.60
2022-12-11T00:29:04.813Z,0.60
2022-12-11T00:31:51.395Z,0.60
2022-12-11T00:34:37.240Z,0.70
2022-12-11T00:37:23.277Z,0.70
2022-12-11T00:40:09.519Z,0.70
2022-12-11T00:42:55.556Z,0.70
2022-12-11T00:45:43.002Z,0.70
2022-12-11T00:48:28.714Z,0.70
2022-12-11T00:51:14.622Z,0.70
2022-12-11T00:54:00.581Z,0.80
2022-12-11T00:56:46.672Z,0.80
2022-12-11T00:59:32.750Z,0.80
2022-12-11T01:02:18.792Z,0.80
2022-12-11T01:05:05.187Z,0.70
2022-12-11T01:07:51.158Z,0.70
2022-12-11T01:10:37.101Z,0.80
2022-12-11T01:13:23.089Z,0.70
2022-12-11T01:16:13.381Z,0.60
2022-12-11T01:19:00.169Z,0.40
2022-12-11T01:21:46.339Z,0.30
2022-12-11T01:24:33.099Z,0.10
2022-12-11T01:27:19.017Z,0.00
2022-12-11T01:30:06.163Z,0.00
2022-12-11T01:32:52.506Z,0.10
2022-12-11T01:35:39.349Z,0.10
2022-12-11T01:38:25.361Z,0.10
2022-12-11T01:41:11.322Z,0.10
2022-12-11T01:44:05.094Z,0.10
2022-12-11T01:46:50.890Z,0.10
2022-12-11T01:49:37.283Z,0.10
2022-12-11T01:52:23.252Z,0.10
2022-12-11T01:55:10.046Z,0.10
2022-12-11T01:57:56.118Z,0.10
2022-12-11T02:00:41.938Z,0.10
2022-12-11T02:03:28.187Z,0.00
2022-12-11T02:06:32.982Z,0.00
2022-12-11T02:09:24.212Z,0.10
2022-12-11T02:12:24.878Z,0.20
2022-12-11T02:15:22.785Z,0.20
2022-12-11T02:18:14.962Z,0.30
2022-12-11T02:21:27.876Z,0.30
2022-12-11T02:24:40.153Z,0.40
2022-12-11T02:27:35.419Z,0.40
2022-12-11T02:30:21.259Z,0.50
2022-12-11T02:33:08.139Z,0.50
2022-12-11T02:35:54.510Z,0.60
2022-12-11T02:38:42.898Z,0.60
2022-12-11T02:41:29.759Z,0.60
2022-12-11T02:44:17.612Z,0.50
2022-12-11T02:47:04.699Z,0.50
2022-12-11T02:49:51.222Z,0.50
2022-12-11T02:52:37.486Z,0.70
2022-12-11T02:55:24.706Z,0.70
2022-12-11T02:58:19.570Z,0.70
2022-12-11T03:01:05.696Z,0.80
2022-12-11T03:03:52.410Z,0.90
2022-12-11T03:06:46.757Z,1.00
2022-12-11T03:09:32.532Z,1.00
2022-12-11T03:12:25.239Z,1.00
2022-12-11T03:15:14.019Z,1.00
2022-12-11T03:17:59.992Z,1.00
2022-12-11T03:20:52.652Z,1.00
2022-12-11T03:23:51.249Z,1.00
2022-12-11T03:26:39.645Z,0.90
2022-12-11T03:29:34.967Z,0.90
2022-12-11T03:32:23.204Z,0.70
2022-12-11T03:35:13.975Z,0.60
2022-12-11T03:38:06.193Z,0.50
2022-12-11T03:40:54.693Z,0.40
2022-12-11T03:43:41.290Z,0.50
2022-12-11T03:46:32.776Z,0.40
2022-12-11T03:49:24.384Z,0.40
2022-12-11T03:52:11.338Z,0.40
2022-12-11T03:54:59.523Z,0.40
2022-12-11T03:57:45.710Z,0.30
2022-12-11T04:00:31.621Z,0.20
2022-12-11T04:03:17.969Z,0.10
2022-12-11T04:06:03.929Z,0.10
2022-12-11T04:08:49.797Z,0.00
2022-12-11T04:11:36.003Z,0.00
2022-12-11T04:14:40.628Z,0.00
2022-12-11T04:17:46.720Z,0.00
2022-12-11T04:20:50.963Z,0.10
2022-12-11T04:23:55.568Z,0.10
2022-12-11T04:26:42.031Z,0.10
2022-12-11T04:29:27.731Z,0.00
2022-12-11T04:32:13.617Z,0.00
2022-12-11T04:34:59.899Z,0.10
2022-12-11T04:37:45.968Z,0.10
2022-12-11T04:40:31.818Z,0.10
2022-12-11T04:43:17.844Z,0.10
2022-12-11T04:46:08.377Z,0.10
2022-12-11T04:48:57.671Z,0.10
2022-12-11T04:51:44.129Z,0.10
2022-12-11T04:54:30.640Z,0.00
2022-12-11T04:57:16.742Z,0.00
2022-12-11T05:00:04.910Z,-0.10
2022-12-11T05:02:50.979Z,-0.20
2022-12-11T05:05:36.848Z,-0.30
2022-12-11T05:08:22.815Z,-0.40
2022-12-11T05:11:10.094Z,-0.50
2022-12-11T05:13:56.092Z,-0.40
2022-12-11T05:16:42.144Z,-0.20
2022-12-11T05:19:28.034Z,-0.20
2022-12-11T05:22:14.037Z,-0.20
2022-12-11T05:25:00.248Z,-0.20
2022-12-11T05:27:46.429Z,-0.20
2022-12-11T05:30:32.619Z,-0.30
2022-12-11T05:33:18.539Z,-0.20
2022-12-11T05:36:04.846Z,-0.20
2022-12-11T05:38:51.364Z,-0.30
2022-12-11T05:41:37.069Z,-0.30
2022-12-11T05:44:23.172Z,-0.40
2022-12-11T05:47:09.273Z,-0.40
2022-12-11T05:49:55.172Z,-0.50
2022-12-11T05:52:41.378Z,-0.50
2022-12-11T05:55:27.638Z,-0.60
2022-12-11T05:58:13.391Z,-0.70
2022-12-11T06:00:59.953Z,-0.70
2022-12-11T06:03:46.371Z,-0.80
2022-12-11T06:06:32.547Z,-0.80
2022-12-11T06:09:18.675Z,-0.80
2022-12-11T06:12:04.827Z,-0.70
2022-12-11T06:14:50.483Z,-0.70
2022-12-11T06:17:36.571Z,-0.60
2022-12-11T06:20:22.233Z,-0.70
2022-12-11T06:23:08.256Z,-0.70
2022-12-11T06:25:54.348Z,-0.70
2022-12-11T06:28:40.199Z,-0.70
2022-12-11T06:31:26.449Z,-0.70
2022-12-11T06:34:13.032Z,-0.80
2022-12-11T06:36:58.908Z,-0.80
2022-12-11T06:39:44.891Z,-0.80
2022-12-11T06:42:31.066Z,-0.80
2022-12-11T06:45:16.904Z,-0.90
2022-12-11T06:48:03.168Z,-0.90
2022-12-11T06:50:49.160Z,-0.90
2022-12-11T06:53:35.450Z,-0.90
2022-12-11T06:56:21.691Z,-1.00
2022-12-11T06:59:10.868Z,-1.00
2022-12-11T07:01:56.790Z,-1.00
2022-12-11T07:04:43.157Z,-0.90
2022-12-11T07:07:28.787Z,-0.80
2022-12-11T07:10:14.826Z,-0.90
2022-12-11T07:13:00.864Z,-0.90
2022-12-11T07:15:46.809Z,-0.90
2022-12-11T07:18:33.092Z,-1.00
2022-12-11T07:21:19.231Z,-1.00
2022-12-11T07:24:05.588Z,-0.90
2022-12-11T07:26:51.392Z,-1.00
2022-12-11T07:29:37.385Z,-0.90
2022-12-11T07:32:23.441Z,-1.00
2022-12-11T07:35:09.885Z,-0.90
2022-12-11T07:37:55.963Z,-1.00
2022-12-11T07:40:42.135Z,-0.90
2022-12-11T07:43:28.170Z,-0.90
2022-12-11T07:46:18.030Z,-0.90
2022-12-11T07:49:04.980Z,-0.80
2022-12-11T07:51:50.922Z,-0.80
2022-12-11T07:54:37.118Z,-0.90
2022-12-11T07:57:23.282Z,-0.80
2022-12-11T08:00:10.626Z,-0.80
2022-12-11T08:02:59.360Z,-0.80
2022-12-11T08:05:49.704Z,-0.80
2022-12-11T08:08:35.761Z,-0.80
2022-12-11T08:11:21.607Z,-0.80
2022-12-11T08:14:08.818Z,-0.70
2022-12-11T08:16:54.640Z,-0.60
2022-12-11T08:19:40.860Z,-0.60
2022-12-11T08:22:26.876Z,-0.60
2022-12-11T08:25:13.355Z,-0.60
2022-12-11T08:27:59.439Z,-0.50
2022-12-11T08:30:45.718Z,-0.30
2022-12-11T08:33:31.742Z,-0.10
2022-12-11T08:36:19.333Z,0.00
2022-12-11T08:39:05.278Z,0.10
2022-12-11T08:41:51.231Z,0.00
2022-12-11T08:44:37.104Z,-0.10
2022-12-11T08:47:23.211Z,0.00
2022-12-11T08:50:11.037Z,-0.10
2022-12-11T08:52:57.897Z,-0.10
2022-12-11T08:55:44.026Z,0.00
2022-12-11T08:58:30.300Z,-0.10
2022-12-11T09:01:18.070Z,-0.10
2022-12-11T09:04:04.257Z,0.00
2022-12-11T09:06:50.380Z,0.10
2022-12-11T09:09:36.480Z,0.10
2022-12-11T09:12:23.121Z,0.10
2022-12-11T09:15:09.399Z,0.30
2022-12-11T09:17:55.448Z,0.40
2022-12-11T09:20:41.624Z,0.40
2022-12-11T09:23:28.215Z,0.50
2022-12-11T09:26:15.667Z,0.40
2022-12-11T09:29:03.524Z,0.30
2022-12-11T09:31:49.720Z,0.10
2022-12-11T09:34:35.951Z,0.10
2022-12-11T09:37:21.946Z,0.30
2022-12-11T09:40:09.699Z,0.30
2022-12-11T09:43:03.155Z,0.40
2022-12-11T09:45:50.981Z,0.40
2022-12-11T09:48:38.201Z,0.70
2022-12-11T09:51:34.597Z,1.00
2022-12-11T09:54:20.382Z,1.30
2022-12-11T09:57:16.477Z,1.50
2022-12-11T10:00:09.539Z,1.70
2022-12-11T10:02:58.977Z,1.70
2022-12-11T10:05:50.055Z,1.50
2022-12-11T10:08:44.171Z,1.20
2022-12-11T10:11:33.201Z,1.10
2022-12-11T10:14:28.464Z,1.10
2022-12-11T10:17:17.537Z,1.10
2022-12-11T10:20:09.720Z,1.40
2022-12-11T10:22:56.843Z,1.60
2022-12-11T10:25:55.915Z,1.90
2022-12-11T10:28:41.712Z,2.20
2022-12-11T10:31:27.880Z,2.60
2022-12-11T10:34:18.729Z,3.00
2022-12-11T10:37:04.717Z,3.10
2022-12-11T10:39:51.079Z,3.40
2022-12-11T10:42:41.191Z,4.00
2022-12-11T10:45:29.924Z,4.20
2022-12-11T10:48:16.013Z,4.50
2022-12-11T10:51:05.097Z,4.30
2022-12-11T10:53:52.790Z,3.70
2022-12-11T10:56:38.548Z,2.90
2022-12-11T10:59:29.514Z,2.70
2022-12-11T11:02:18.545Z,2.40
2022-12-11T11:05:12.853Z,2.80
2022-12-11T11:08:13.847Z,3.30
2022-12-11T11:11:00.771Z,3.20
2022-12-11T11:13:46.746Z,3.10
2022-12-11T11:16:35.556Z,2.80
2022-12-11T11:19:24.056Z,2.60
2022-12-11T11:22:14.311Z,2.20
2022-12-11T11:25:00.090Z,2.10
2022-12-11T11:27:49.272Z,2.00
2022-12-11T11:30:36.875Z,1.70
2022-12-11T11:33:23.551Z,1.60
2022-12-11T11:36:20.355Z,1.60
2022-12-11T11:39:12.447Z,1.40
2022-12-11T11:42:04.688Z,1.20
2022-12-11T11:45:02.556Z,1.00
2022-12-11T11:47:53.601Z,1.00
2022-12-11T11:50:41.200Z,1.20
2022-12-11T11:53:30.413Z,1.50
2022-12-11T11:56:16.136Z,1.60
2022-12-11T11:59:19.312Z,1.60
2022-12-11T12:02:13.480Z,1.40
2022-12-11T12:04:59.201Z,1.00
2022-12-11T12:07:51.085Z,0.70
2022-12-11T12:10:42.993Z,0.50
2022-12-11T12:16:52.518Z,1.10
2022-12-11T12:19:58.555Z,1.20
2022-12-11T12:23:11.645Z,1.10
2022-12-11T12:26:16.393Z,1.60
2022-12-11T12:29:14.603Z,2.30
2022-12-11T12:32:03.772Z,2.20
2022-12-11T12:34:52.944Z,2.60
2022-12-11T12:37:45.791Z,2.50
2022-12-11T12:40:34.323Z,2.10
2022-12-11T12:43:29.311Z,1.80
2022-12-11T12:46:15.215Z,1.50
2022-12-11T12:49:02.312Z,1.30
2022-12-11T12:51:49.342Z,1.10
2022-12-11T12:54:35.553Z,1.10
2022-12-11T12:57:21.398Z,1.00
2022-12-11T13:00:13.285Z,0.90
2022-12-11T13:03:01.428Z,0.80
2022-12-11T13:05:57.979Z,0.70
2022-12-11T13:08:46.832Z,0.60
2022-12-11T13:11:34.192Z,0.50
2022-12-11T13:14:23.546Z,0.70
2022-12-11T13:17:22.135Z,1.10
2022-12-11T13:20:17.909Z,1.20
2022-12-11T13:23:06.736Z,1.80
2022-12-11T13:25:54.192Z,2.10
2022-12-11T13:28:40.182Z,2.00
2022-12-11T13:31:34.136Z,2.00
2022-12-11T13:34:22.323Z,2.60
2022-12-11T13:37:23.224Z,2.70
2022-12-11T13:40:17.232Z,2.20
2022-12-11T13:43:04.638Z,1.70
2022-12-11T13:45:51.853Z,1.40
2022-12-11T13:48:37.749Z,1.00
2022-12-11T13:51:25.315Z,1.00
2022-12-11T13:54:20.114Z,1.40
2022-12-11T13:57:06.050Z,1.60
2022-12-11T13:59:53.490Z,2.00
2022-12-11T14:02:42.468Z,2.10
2022-12-11T14:05:28.968Z,1.90
2022-12-11T14:08:20.302Z,1.60
2022-12-11T14:11:06.512Z,1.70
2022-12-11T14:13:52.451Z,1.80
2022-12-11T14:16:38.558Z,2.00
2022-12-11T14:19:25.196Z,1.90
2022-12-11T14:22:17.912Z,1.60
2022-12-11T14:25:18.005Z,1.40
2022-12-11T14:28:04.240Z,1.20
2022-12-11T14:30:51.909Z,1.00
2022-12-11T14:33:40.465Z,0.60
2022-12-11T14:36:26.776Z,0.30
2022-12-11T14:39:31.673Z,0.10
2022-12-11T14:42:20.306Z,-0.10
2022-12-11T14:45:18.648Z,-0.30
2022-12-11T14:48:09.703Z,-0.30
2022-12-11T14:50:57.832Z,-0.40
2022-12-11T14:53:45.301Z,-0.40
2022-12-11T14:56:31.540Z,-0.40
2022-12-11T14:59:19.564Z,-0.40
2022-12-11T15:02:22.769Z,-0.40
2022-12-11T15:05:14.304Z,-0.40
2022-12-11T15:08:01.565Z,-0.50
2022-12-11T15:10:59.503Z,-0.50
2022-12-11T15:13:56.748Z,-0.50
2022-12-11T15:16:42.721Z,-0.50
2022-12-11T15:19:28.520Z,-0.60
2022-12-11T15:22:15.858Z,-0.70
2022-12-11T15:25:02.064Z,-0.60
2022-12-11T15:27:50.913Z,-0.70
2022-12-11T15:30:37.046Z,-0.70
2022-12-11T15:33:23.105Z,-0.60
2022-12-11T15:36:24.348Z,-0.60
2022-12-11T15:39:10.287Z,-0.80
2022-12-11T15:41:56.336Z,-0.80
2022-12-11T15:44:42.610Z,-0.80
2022-12-11T15:47:29.204Z,-0.80
2022-12-11T15:50:19.485Z,-0.80
2022-12-11T15:53:05.787Z,-0.80
2022-12-11T15:55:52.130Z,-0.80
2022-12-11T15:58:38.321Z,-0.80
2022-12-11T16:01:24.444Z,-0.80
2022-12-11T16:04:10.149Z,-0.80
2022-12-11T16:06:56.209Z,-0.70
2022-12-11T16:09:42.206Z,-0.70
2022-12-11T16:12:28.212Z,-0.70
2022-12-11T16:15:22.875Z,-0.70
2022-12-11T16:18:11.182Z,-0.60
2022-12-11T16:20:57.251Z,-0.70
2022-12-11T16:23:42.969Z,-0.80
2022-12-11T16:26:29.149Z,-0.90
2022-12-11T16:29:14.972Z,-0.90
2022-12-11T16:32:00.911Z,-0.90
2022-12-11T16:34:47.085Z,-0.90
2022-12-11T16:37:33.189Z,-0.80
2022-12-11T16:40:19.265Z,-0.80
2022-12-11T16:43:05.834Z,-0.80
2022-12-11T16:45:54.490Z,-0.90
2022-12-11T16:48:43.904Z,-1.00
2022-12-11T16:51:29.638Z,-1.00
2022-12-11T16:54:16.032Z,-1.10
2022-12-11T16:57:02.272Z,-1.10
2022-12-11T16:59:48.486Z,-1.20
2022-12-11T17:02:34.764Z,-1.20
2022-12-11T17:05:20.895Z,-1.20
2022-12-11T17:08:07.331Z,-1.20
2022-12-11T17:10:53.376Z,-1.20
2022-12-11T17:13:39.487Z,-1.10
2022-12-11T17:16:28.955Z,-1.10
2022-12-11T17:19:15.196Z,-1.10
2022-12-11T17:22:00.963Z,-1.10
2022-12-11T17:24:47.169Z,-1.10
2022-12-11T17:27:33.232Z,-1.20
2022-12-11T17:30:18.914Z,-1.20
2022-12-11T17:33:05.384Z,-1.20
2022-12-11T17:35:51.116Z,-1.10
2022-12-11T17:38:37.160Z,-1.10
2022-12-11T17:41:23.648Z,-1.10
2022-12-11T17:44:09.622Z,-1.00
2022-12-11T17:46:56.199Z,-1.00
2022-12-11T17:49:42.419Z,-1.00
2022-12-11T17:52:33.831Z,-1.00
2022-12-11T17:55:20.970Z,-1.00
2022-12-11T17:58:06.992Z,-1.00
2022-12-11T18:00:54.217Z,-1.00
2022-12-11T18:03:40.483Z,-1.00
2022-12-11T18:06:26.749Z,-1.00
2022-12-11T18:09:12.525Z,-1.00
2022-12-11T18:11:59.961Z,-1.00
2022-12-11T18:14:46.496Z,-0.90
2022-12-11T18:17:32.629Z,-0.80
2022-12-11T18:20:18.356Z,-0.70
2022-12-11T18:23:04.623Z,-0.60
2022-12-11T18:25:50.559Z,-0.50
2022-12-11T18:28:36.711Z,-0.40
2022-12-11T18:31:23.030Z,-0.40
2022-12-11T18:34:09.828Z,-0.20
2022-12-11T18:36:55.635Z,-0.20
2022-12-11T18:39:41.968Z,-0.10
2022-12-11T18:42:35.167Z,0.00
2022-12-11T18:45:20.823Z,0.10
2022-12-11T18:48:07.828Z,0.10
2022-12-11T18:50:54.324Z,0.10
2022-12-11T18:53:40.625Z,0.20
2022-12-11T18:56:26.663Z,0.20
2022-12-11T18:59:15.632Z,0.30
2022-12-11T19:02:01.711Z,0.30
2022-12-11T19:04:47.491Z,0.20
2022-12-11T19:07:33.583Z,0.10
2022-12-11T19:10:19.582Z,0.00
2022-12-11T19:13:05.636Z,-0.10
2022-12-11T19:15:51.622Z,-0.10
2022-12-11T19:18:37.567Z,-0.20
2022-12-11T19:21:23.887Z,-0.30
2022-12-11T19:24:11.733Z,-0.30
2022-12-11T19:26:57.602Z,-0.30
2022-12-11T19:29:44.164Z,-0.40
2022-12-11T19:32:36.025Z,-0.40
2022-12-11T19:35:22.427Z,-0.40
2022-12-11T19:38:08.827Z,-0.40
2022-12-11T19:40:54.770Z,-0.40
2022-12-11T19:43:40.680Z,-0.40
2022-12-11T19:46:27.541Z,-0.40
2022-12-11T19:49:13.648Z,-0.40
2022-12-11T19:51:59.360Z,-0.50
2022-12-11T19:54:45.411Z,-0.50
2022-12-11T19:57:32.785Z,-0.60
2022-12-11T20:00:19.617Z,-0.60
2022-12-11T20:03:05.380Z,-0.60
2022-12-11T20:05:51.468Z,-0.60
2022-12-11T20:08:45.828Z,-0.50
2022-12-11T20:11:33.293Z,-0.50
2022-12-11T20:14:23.686Z,-0.60
2022-12-11T20:17:12.801Z,-0.60
2022-12-11T20:19:59.961Z,-0.70
2022-12-11T20:22:45.979Z,-0.70
2022-12-11T20:25:32.404Z,-0.60
2022-12-11T20:28:18.685Z,-0.50
2022-12-11T20:31:06.146Z,-0.50
2022-12-11T20:33:52.813Z,-0.50
2022-12-11T20:36:38.842Z,-0.50
2022-12-11T20:39:24.588Z,-0.50
2022-12-11T20:42:10.956Z,-0.40
2022-12-11T20:44:56.867Z,-0.50
2022-12-11T20:47:42.767Z,-0.50
2022-12-11T20:50:29.017Z,-0.60
2022-12-11T20:53:14.992Z,-0.70
2022-12-11T20:56:01.231Z,-0.80
2022-12-11T20:58:47.495Z,-0.90
2022-12-11T21:01:34.810Z,-1.00
2022-12-11T21:04:20.616Z,-1.00
2022-12-11T21:07:07.155Z,-1.10
2022-12-11T21:09:53.069Z,-1.20
2022-12-11T21:12:39.029Z,-1.30
2022-12-11T21:15:25.065Z,-1.50
2022-12-11T21:18:11.008Z,-1.50
2022-12-11T21:20:57.449Z,-1.50
2022-12-11T21:23:44.063Z,-1.50
2022-12-11T21:26:29.989Z,-1.60
2022-12-11T21:29:16.488Z,-1.60
2022-12-11T21:32:02.783Z,-1.60
2022-12-11T21:34:50.289Z,-1.60
2022-12-11T21:37:36.107Z,-1.60
2022-12-11T21:40:22.476Z,-1.70
2022-12-11T21:43:08.471Z,-1.70
2022-12-11T21:46:02.339Z,-1.70
2022-12-11T21:48:48.793Z,-1.70
2022-12-11T21:51:38.558Z,-1.70
2022-12-11T21:54:25.355Z,-1.70
2022-12-11T21:57:11.151Z,-1.70
2022-12-11T21:59:57.213Z,-1.80
2022-12-11T22:02:43.264Z,-1.80
2022-12-11T22:05:29.426Z,-1.90
2022-12-11T22:08:15.820Z,-1.90
2022-12-11T22:11:01.782Z,-1.90
2022-12-11T22:13:47.945Z,-1.90
2022-12-11T22:16:35.046Z,-1.90
2022-12-11T22:19:21.216Z,-1.90
2022-12-11T22:22:07.322Z,-2.00
2022-12-11T22:24:53.419Z,-2.00
2022-12-11T22:27:39.939Z,-1.90
2022-12-11T22:30:26.067Z,-1.90
2022-12-11T22:33:11.904Z,-1.90
2022-12-11T22:35:59.145Z,-2.00
2022-12-11T22:38:45.335Z,-2.00
2022-12-11T22:41:31.723Z,-2.10
2022-12-11T22:44:19.028Z,-2.00
2022-12-11T22:47:04.933Z,-2.10
2022-12-11T22:49:50.909Z,-2.10
2022-12-11T22:52:37.052Z,-2.10
2022-12-11T22:55:22.738Z,-2.20
2022-12-11T22:58:08.830Z,-2.20
2022-12-11T23:00:54.899Z,-2.10
2022-12-11T23:03:40.938Z,-2.10
2022-12-11T23:06:27.139Z,-2.10
2022-12-11T23:09:13.277Z,-2.10
2022-12-11T23:11:59.136Z,-2.20
2022-12-11T23:14:44.986Z,-2.20
2022-12-11T23:17:31.060Z,-2.20
2022-12-11T23:20:17.364Z,-2.20
2022-12-11T23:23:03.562Z,-2.20
2022-12-11T23:25:49.720Z,-2.20
2022-12-11T23:28:36.197Z,-2.20
2022-12-11T23:31:22.759Z,-2.20
2022-12-11T23:34:08.316Z,-2.20
2022-12-11T23:36:54.388Z,-2.20
2022-12-11T23:39:40.494Z,-2.20
2022-12-11T23:42:26.544Z,-2.20
2022-12-11T23:45:12.768Z,-2.20
2022-12-11T23:47:59.064Z,-2.30
2022-12-11T23:50:45.227Z,-2.30
2022-12-11T23:53:31.046Z,-2.30
2022-12-11T23:56:22.228Z,-2.30
2022-12-11T23:59:11.272Z,-2.20
